Time;durP1;ratioP1;P1;durP2;ratioP2;P2;SDS_P1;SDS_P2;PMS_P1;PMS_P2;Temp;Humidity;BMP_temperature;BMP_pressure;BME280_temperature;BME280_humidity;BME280_pressure;Samples;Min_cycle;Max_cycle;Signal;HPM_P1;HPM_P2
2023/07/15 00:01:31;;;;;;;;;2.33;2.33;;;;;28.62;39.67;100367.28;5096321;27;45276;-71
2023/07/15 00:03:57;;;;;;;;;1.33;1.33;;;;;28.61;39.36;100366.47;5096165;27;46171;-72
2023/07/15 00:06:24;;;;;;;;;5.00;3.00;;;;;28.61;39.62;100369.13;5095834;27;45320;-72
2023/07/15 00:08:50;;;;;;;;;4.67;3.00;;;;;28.61;39.67;100371.81;5096230;27;45410;-72
2023/07/15 00:11:20;;;;;;;;;3.33;2.33;;;;;28.62;39.44;100372.63;5096299;27;45492;-72
2023/07/15 00:13:45;;;;;;;;;2.00;2.00;;;;;28.60;39.86;100378.22;5096320;27;45979;-72
2023/07/15 00:16:10;;;;;;;;;2.00;2.00;;;;;28.61;39.58;100365.66;5096240;27;45447;-72
2023/07/15 00:18:35;;;;;;;;;2.33;2.33;;;;;28.61;39.79;100377.16;5096053;27;45970;-72
2023/07/15 00:21:20;;;;;;;;;2.00;2.00;;;;;28.61;39.34;100371.81;5095897;27;45334;-72
2023/07/15 00:23:53;;;;;;;;;3.00;2.00;;;;;28.60;39.42;100366.69;5096105;27;46129;-72
2023/07/15 00:26:19;;;;;;;;;3.00;3.00;;;;;28.62;39.37;100380.66;5096078;27;45371;-72
2023/07/15 00:28:45;;;;;;;;;2.33;2.33;;;;;28.61;39.63;100387.88;5095987;27;45355;-72
2023/07/15 00:31:13;;;;;;;;;3.00;2.00;;;;;28.62;39.52;100388.69;5095993;27;45476;-72
2023/07/15 00:33:40;;;;;;;;;4.00;4.00;;;;;28.62;39.66;100386.00;5099083;27;46040;-72
2023/07/15 00:36:06;;;;;;;;;3.00;3.00;;;;;28.62;39.75;100386.00;5099556;27;45326;-72
2023/07/15 00:38:31;;;;;;;;;3.00;3.00;;;;;28.62;39.71;100391.38;5099621;27;45396;-72
2023/07/15 00:40:57;;;;;;;;;3.00;2.00;;;;;28.62;39.52;100389.47;5099551;27;45275;-72
2023/07/15 00:43:54;;;;;;;;;4.00;4.00;;;;;28.63;39.58;100406.34;5099398;27;45352;-71
2023/07/15 00:46:22;;;;;;;;;3.33;3.00;;;;;28.63;39.37;100399.16;5099213;27;45362;-72
2023/07/15 00:49:03;;;;;;;;;3.00;2.33;;;;;28.64;39.93;100399.97;5099073;27;45363;-72
2023/07/15 00:51:38;;;;;;;;;3.00;3.00;;;;;28.63;39.55;100404.50;5099282;27;45421;-72
2023/07/15 00:54:05;;;;;;;;;3.00;2.67;;;;;28.63;39.25;100399.16;5099129;27;46275;-72
2023/07/15 00:56:35;;;;;;;;;3.00;2.67;;;;;28.61;39.76;100400.44;5099244;27;45419;-72
2023/07/15 00:59:01;;;;;;;;;2.00;2.00;;;;;28.62;39.62;100413.56;5099243;27;45388;-72
2023/07/15 01:01:27;;;;;;;;;4.00;3.00;;;;;28.61;39.40;100417.31;5115090;27;45589;-72
2023/07/15 01:03:54;;;;;;;;;3.67;3.67;;;;;28.60;39.62;100412.19;5098768;27;47508;-71
2023/07/15 01:06:20;;;;;;;;;2.00;2.00;;;;;28.62;39.50;100410.88;5099137;27;45407;-72
2023/07/15 01:08:45;;;;;;;;;2.00;2.00;;;;;28.60;39.48;100417.53;5099083;27;45247;-72
2023/07/15 01:11:11;;;;;;;;;4.00;3.00;;;;;28.60;39.41;100418.34;5099099;27;45382;-72
2023/07/15 01:13:36;;;;;;;;;2.33;2.33;;;;;28.61;39.45;100419.16;5098973;27;45421;-72
2023/07/15 01:16:02;;;;;;;;;1.00;1.00;;;;;28.61;39.51;100414.63;5098964;27;45318;-71
2023/07/15 01:18:28;;;;;;;;;3.00;2.00;;;;;28.60;39.71;100423.69;5098473;27;45291;-72
2023/07/15 01:20:58;;;;;;;;;3.00;3.00;;;;;28.60;39.61;100433.59;5098853;27;45431;-72
2023/07/15 01:23:24;;;;;;;;;4.00;2.33;;;;;28.61;39.59;100430.69;5098841;27;46216;-72
2023/07/15 01:25:49;;;;;;;;;2.33;2.33;;;;;28.62;39.69;100431.50;5098722;27;45441;-72
2023/07/15 01:28:14;;;;;;;;;3.33;2.67;;;;;28.61;39.34;100422.66;5098757;27;45475;-73
2023/07/15 01:30:39;;;;;;;;;4.00;4.00;;;;;28.61;39.68;100419.97;5098866;27;45371;-72
2023/07/15 01:33:05;;;;;;;;;3.33;3.33;;;;;28.61;39.48;100421.84;5098742;27;45336;-72
2023/07/15 01:35:30;;;;;;;;;4.00;3.00;;;;;28.61;39.93;100419.97;5098582;27;45404;-72
2023/07/15 01:37:55;;;;;;;;;4.00;4.00;;;;;28.60;39.94;100413.00;5098731;27;45369;-72
2023/07/15 01:40:21;;;;;;;;;3.67;3.67;;;;;28.61;40.00;100411.13;5098345;27;46380;-71
2023/07/15 01:42:46;;;;;;;;;3.33;3.33;;;;;28.60;39.46;100410.31;5098031;27;46161;-72
2023/07/15 01:45:12;;;;;;;;;4.67;3.00;;;;;28.61;39.61;100409.28;5097792;27;45432;-72
2023/07/15 01:47:37;;;;;;;;;2.67;2.67;;;;;28.61;39.55;100411.97;5098177;27;45361;-71
2023/07/15 01:50:06;;;;;;;;;2.00;2.00;;;;;28.61;39.71;100414.63;5098673;27;45360;-72
2023/07/15 01:52:31;;;;;;;;;4.00;4.00;;;;;28.61;39.45;100406.59;5098276;27;45985;-72
2023/07/15 01:54:57;;;;;;;;;3.00;2.00;;;;;28.62;39.81;100410.09;5098235;27;45317;-72
2023/07/15 01:57:25;;;;;;;;;3.00;3.00;;;;;28.62;39.97;100402.06;5098530;27;45453;-72
2023/07/15 01:59:57;;;;;;;;;1.33;1.33;;;;;28.62;39.67;100404.75;5098247;27;45344;-72
2023/07/15 02:02:26;;;;;;;;;3.00;3.00;;;;;28.62;39.63;100405.53;5097771;27;47273;-71
2023/07/15 02:04:51;;;;;;;;;1.67;1.67;;;;;28.61;39.81;100395.09;5098081;27;45432;-72
2023/07/15 02:07:16;;;;;;;;;2.67;2.67;;;;;28.62;39.61;100399.41;5098233;27;45393;-72
2023/07/15 02:09:42;;;;;;;;;3.00;3.00;;;;;28.58;39.49;100387.53;5098205;27;45464;-72
2023/07/15 02:12:08;;;;;;;;;3.00;3.00;;;;;28.61;39.48;100395.09;5098102;27;46308;-71
2023/07/15 02:14:36;;;;;;;;;4.00;2.00;;;;;28.60;39.91;100396.13;5098081;27;45284;-71
2023/07/15 02:17:01;;;;;;;;;2.00;2.00;;;;;28.60;39.38;100391.59;5097702;27;45304;-72
2023/07/15 02:19:27;;;;;;;;;2.00;2.00;;;;;28.60;39.78;100396.13;5097758;27;45327;-72
2023/07/15 02:21:52;;;;;;;;;2.33;2.33;;;;;28.59;39.66;100403.34;5098051;27;46097;-71
2023/07/15 02:24:17;;;;;;;;;1.67;1.67;;;;;28.60;39.81;100393.44;5097882;27;45365;-71
2023/07/15 02:26:43;;;;;;;;;2.33;2.33;;;;;28.59;39.42;100384.63;5098010;27;45400;-72
2023/07/15 02:29:09;;;;;;;;;3.33;3.00;;;;;28.60;39.44;100391.59;5097919;27;45335;-72
2023/07/15 02:31:34;;;;;;;;;2.00;2.00;;;;;28.59;39.52;100395.31;5097090;27;46133;-71
2023/07/15 02:33:59;;;;;;;;;2.00;2.00;;;;;28.58;39.55;100393.69;5097768;27;45596;-72
2023/07/15 02:36:25;;;;;;;;;3.33;3.33;;;;;28.60;39.62;100378.22;5097843;27;45345;-72
2023/07/15 02:38:50;;;;;;;;;3.00;2.00;;;;;28.58;39.82;100374.13;5098024;27;45388;-72
2023/07/15 02:41:15;;;;;;;;;3.00;3.00;;;;;28.60;39.58;100375.53;5097544;27;45426;-72
2023/07/15 02:43:41;;;;;;;;;2.00;2.00;;;;;28.61;39.53;100371.81;5097341;27;45268;-71
2023/07/15 02:46:06;;;;;;;;;4.67;4.67;;;;;28.61;39.72;100373.66;5097327;27;45314;-72
2023/07/15 02:48:31;;;;;;;;;3.00;3.00;;;;;28.61;39.68;100377.16;5097559;27;45942;-71
2023/07/15 02:50:57;;;;;;;;;3.00;3.00;;;;;28.61;39.37;100358.44;5097039;27;50360;-72
2023/07/15 02:53:23;;;;;;;;;2.33;2.33;;;;;28.62;39.61;100356.56;5113134;27;52497;-72
2023/07/15 02:55:50;;;;;;;;;3.00;3.00;;;;;28.62;39.67;100353.91;5097180;27;45223;-71
2023/07/15 02:58:17;;;;;;;;;3.00;3.00;;;;;28.62;39.44;100349.34;5097030;27;45286;-72
2023/07/15 03:00:43;;;;;;;;;2.00;2.00;;;;;28.62;39.73;100348.53;5097047;27;46051;-71
2023/07/15 03:03:09;;;;;;;;;2.67;2.67;;;;;28.62;39.33;100348.53;5097170;27;45850;-72
2023/07/15 03:05:35;;;;;;;;;2.33;2.33;;;;;28.60;39.69;100345.28;5097381;27;45456;-71
2023/07/15 03:08:00;;;;;;;;;3.00;3.00;;;;;28.61;40.00;100346.91;5097208;27;45346;-71
2023/07/15 03:10:26;;;;;;;;;2.33;2.33;;;;;28.60;39.40;100351.44;5097087;27;46185;-72
2023/07/15 03:12:51;;;;;;;;;2.00;2.00;;;;;28.59;39.94;100347.16;5096819;27;45449;-72
2023/07/15 03:15:17;;;;;;;;;2.00;2.00;;;;;28.57;39.43;100346.59;5097243;27;45440;-72
2023/07/15 03:17:43;;;;;;;;;2.00;2.00;;;;;28.59;39.31;100347.16;5097042;27;45603;-72
2023/07/15 03:20:19;;;;;;;;;2.33;2.33;;;;;28.60;39.34;100353.31;5096826;27;45371;-71
2023/07/15 03:22:44;;;;;;;;;2.33;2.33;;;;;28.60;39.65;100351.44;5096816;27;45349;-71
2023/07/15 03:25:10;;;;;;;;;2.33;2.33;;;;;28.58;39.62;100353.56;5097346;27;45295;-72
2023/07/15 03:27:36;;;;;;;;;4.00;2.33;;;;;28.60;39.64;100353.31;5096657;27;45569;-72
2023/07/15 03:30:02;;;;;;;;;3.00;3.00;;;;;28.59;39.69;100357.88;5096740;27;45278;-72
2023/07/15 03:32:27;;;;;;;;;5.67;4.00;;;;;28.59;39.81;100352.50;5096822;27;45327;-72
2023/07/15 03:34:53;;;;;;;;;1.67;1.67;;;;;28.59;39.71;100349.00;5096790;27;45328;-71
2023/07/15 03:37:18;;;;;;;;;4.00;2.33;;;;;28.59;39.64;100351.69;5096892;27;45760;-72
2023/07/15 03:39:43;;;;;;;;;2.00;2.00;;;;;28.60;39.66;100362.16;5096625;27;47193;-72
2023/07/15 03:42:09;;;;;;;;;3.00;3.00;;;;;28.59;39.94;100363.22;5096308;27;45468;-72
2023/07/15 03:44:35;;;;;;;;;1.67;1.67;;;;;28.59;39.78;100367.75;5096968;27;45331;-72
2023/07/15 03:47:00;;;;;;;;;1.67;1.67;;;;;28.58;39.61;100372.28;5096569;27;45395;-72
2023/07/15 03:49:25;;;;;;;;;3.00;3.00;;;;;28.60;39.90;100372.03;5096518;27;46314;-72
2023/07/15 03:51:51;;;;;;;;;2.67;2.00;;;;;28.60;39.35;100375.53;5096552;27;45409;-71
2023/07/15 03:54:16;;;;;;;;;2.33;2.33;;;;;28.60;39.52;100364.81;5097001;27;45322;-72
2023/07/15 03:56:41;;;;;;;;;3.00;3.00;;;;;28.61;39.59;100376.34;5096331;27;45479;-72
2023/07/15 03:59:07;;;;;;;;;2.67;2.67;;;;;28.61;39.46;100368.31;5096371;27;46032;-72
2023/07/15 04:01:34;;;;;;;;;4.00;3.00;;;;;28.61;39.85;100377.16;5096292;27;45511;-72
2023/07/15 04:04:04;;;;;;;;;2.00;2.00;;;;;28.62;39.92;100370.75;5096494;27;45420;-72
2023/07/15 04:06:31;;;;;;;;;2.00;2.00;;;;;28.60;39.77;100370.19;5096361;27;45505;-72
2023/07/15 04:08:57;;;;;;;;;3.33;2.00;;;;;28.61;39.99;100377.16;5099881;27;45996;-72
2023/07/15 04:11:22;;;;;;;;;6.00;4.67;;;;;28.63;39.68;100379.59;5099599;27;45287;-71
2023/07/15 04:13:47;;;;;;;;;2.00;2.00;;;;;28.61;39.27;100382.53;5100081;27;45295;-71
2023/07/15 04:16:13;;;;;;;;;2.00;2.00;;;;;28.61;39.57;100382.53;5100164;27;45216;-71
2023/07/15 04:18:39;;;;;;;;;3.00;3.00;;;;;28.60;39.45;100378.22;5099405;27;46900;-72
2023/07/15 04:21:04;;;;;;;;;2.00;2.00;;;;;28.62;39.54;100378.78;5099736;27;45334;-72
2023/07/15 04:23:29;;;;;;;;;2.33;0.33;;;;;28.62;39.54;100369.97;5099973;27;45256;-72
2023/07/15 04:25:55;;;;;;;;;2.00;2.00;;;;;28.61;39.88;100365.66;5099207;27;45351;-72
2023/07/15 04:28:20;;;;;;;;;2.67;2.67;;;;;28.61;39.73;100368.31;5099715;27;51295;-72
2023/07/15 04:30:46;;;;;;;;;3.00;3.00;;;;;28.61;39.53;100366.47;5099623;27;45349;-72
2023/07/15 04:33:11;;;;;;;;;1.00;1.00;;;;;28.62;39.66;100367.28;5099869;27;45375;-72
2023/07/15 04:35:37;;;;;;;;;2.67;2.00;;;;;28.62;39.76;100368.06;5099763;27;45371;-72
2023/07/15 04:38:02;;;;;;;;;2.00;2.00;;;;;28.63;39.93;100368.88;5099467;27;46604;-72
2023/07/15 04:40:28;;;;;;;;;2.67;1.00;;;;;28.65;39.36;100361.44;5099028;27;45443;-72
2023/07/15 04:42:54;;;;;;;;;1.33;1.33;;;;;28.65;39.39;100369.47;5099640;27;45352;-72
2023/07/15 04:45:19;;;;;;;;;2.00;2.00;;;;;28.68;39.44;100366.31;5099148;27;52291;-72
2023/07/15 04:47:44;;;;;;;;;2.00;2.00;;;;;28.71;39.59;100363.16;5099239;27;45376;-72
2023/07/15 04:50:10;;;;;;;;;2.00;2.00;;;;;28.74;39.27;100353.84;5099390;27;45447;-71
2023/07/15 04:52:35;;;;;;;;;2.00;2.00;;;;;28.77;39.22;100358.72;5099430;27;45305;-72
2023/07/15 04:55:00;;;;;;;;;1.67;1.67;;;;;28.79;39.75;100356.63;5098991;27;45455;-71
2023/07/15 04:57:26;;;;;;;;;1.00;1.00;;;;;28.83;39.06;100360.44;5099176;27;47711;-72
2023/07/15 04:59:52;;;;;;;;;1.00;1.00;;;;;28.86;39.12;100367.19;5099229;27;45365;-72
2023/07/15 05:02:17;;;;;;;;;2.00;2.00;;;;;28.87;39.29;100352.75;5099355;27;45296;-72
2023/07/15 05:04:43;;;;;;;;;1.00;1.00;;;;;28.92;39.01;100358.22;5099333;27;45343;-71
2023/07/15 05:07:08;;;;;;;;;2.33;2.33;;;;;28.94;39.29;100360.63;5098981;27;48434;-72
2023/07/15 05:09:33;;;;;;;;;1.00;1.00;;;;;28.94;39.38;100355.28;5098771;27;45483;-72
2023/07/15 05:11:59;;;;;;;;;1.00;1.00;;;;;28.99;39.21;100365.28;5099302;27;45342;-72
2023/07/15 05:14:24;;;;;;;;;2.67;2.67;;;;;29.01;39.00;100368.53;5099179;27;45425;-72
2023/07/15 05:16:49;;;;;;;;;2.00;2.00;;;;;29.03;39.22;100361.88;5098656;27;46290;-71
2023/07/15 05:19:14;;;;;;;;;3.00;3.00;;;;;29.04;39.27;100355.47;5098649;27;45285;-72
2023/07/15 05:21:40;;;;;;;;;1.33;1.33;;;;;29.06;39.01;100357.91;5098942;27;45403;-71
2023/07/15 05:24:06;;;;;;;;;2.00;2.00;;;;;29.06;38.98;100355.25;5098420;27;48340;-72
2023/07/15 05:26:32;;;;;;;;;2.00;2.00;;;;;29.08;39.13;100358.47;5098794;27;46914;-71
2023/07/15 05:28:57;;;;;;;;;3.33;2.33;;;;;29.06;39.53;100358.75;5098687;27;45354;-71
2023/07/15 05:31:22;;;;;;;;;2.00;2.00;;;;;29.09;39.07;100362.84;5098853;27;45271;-72
2023/07/15 05:33:47;;;;;;;;;1.67;1.67;;;;;29.09;39.13;100357.47;5098616;27;48676;-72
2023/07/15 05:36:14;;;;;;;;;3.00;3.00;;;;;29.07;39.03;100356.84;5098601;27;47229;-72
2023/07/15 05:38:43;;;;;;;;;2.00;2.00;;;;;29.09;39.44;100361.97;5098230;27;45419;-72
2023/07/15 05:41:11;;;;;;;;;1.00;1.00;;;;;29.09;38.94;100359.31;5098686;27;45339;-72
2023/07/15 05:43:36;;;;;;;;;1.33;1.33;;;;;29.07;39.11;100363.03;5098456;27;45445;-71
2023/07/15 05:46:01;;;;;;;;;1.33;1.33;;;;;29.10;39.37;100367.13;5098331;27;47270;-72
2023/07/15 05:48:26;;;;;;;;;2.00;2.00;;;;;29.15;38.97;100379.78;5098386;27;45249;-72
2023/07/15 05:50:52;;;;;;;;;2.00;2.00;;;;;29.20;38.87;100377.19;5098629;27;45292;-72
2023/07/15 05:53:18;;;;;;;;;2.00;2.00;;;;;29.23;38.64;100373.22;5098011;27;48407;-72
2023/07/15 05:55:43;;;;;;;;;2.00;2.00;;;;;29.26;38.97;100378.09;5098223;27;45933;-72
2023/07/15 05:58:11;;;;;;;;;2.00;2.00;;;;;29.31;38.55;100369.34;5098282;27;45376;-71
2023/07/15 06:00:40;;;;;;;;;1.00;1.00;;;;;29.45;38.76;100381.38;5098424;27;45408;-71
2023/07/15 06:03:07;;;;;;;;;3.67;2.00;;;;;29.61;38.67;100384.31;5098261;27;45430;-71
2023/07/15 06:05:32;;;;;;;;;1.67;1.67;;;;;29.78;38.29;100380.81;5098118;27;45348;-72
2023/07/15 06:07:57;;;;;;;;;2.67;2.00;;;;;30.00;37.93;100372.84;5097672;27;45361;-72
2023/07/15 06:10:23;;;;;;;;;2.67;1.00;;;;;30.28;38.01;100367.56;5098283;27;45338;-72
2023/07/15 06:12:48;;;;;;;;;1.00;1.00;;;;;30.57;37.44;100366.63;5098249;27;45473;-72
2023/07/15 06:15:14;;;;;;;;;0.67;0.67;;;;;30.76;36.97;100371.66;5098222;27;46138;-72
2023/07/15 06:17:39;;;;;;;;;1.00;1.00;;;;;30.76;36.90;100367.06;5097783;27;45409;-72
2023/07/15 06:20:06;;;;;;;;;1.00;1.00;;;;;30.87;36.57;100369.88;5098161;27;45441;-72
2023/07/15 06:22:31;;;;;;;;;2.00;2.00;;;;;30.99;37.01;100375.97;5097705;27;45338;-72
2023/07/15 06:24:57;;;;;;;;;4.33;1.67;;;;;31.06;36.18;100373.88;5097840;27;47192;-72
2023/07/15 06:27:23;;;;;;;;;2.00;2.00;;;;;31.09;36.08;100377.13;5098239;27;45985;-72
2023/07/15 06:29:49;;;;;;;;;0.33;0.33;;;;;31.01;36.49;100379.19;5097159;27;45241;-72
2023/07/15 06:32:15;;;;;;;;;2.00;2.00;;;;;30.94;36.20;100378.59;5097725;27;45287;-72
2023/07/15 06:34:40;;;;;;;;;1.00;1.00;;;;;30.83;36.56;100369.59;5097589;27;46285;-72
2023/07/15 06:37:05;;;;;;;;;2.00;1.67;;;;;30.74;36.42;100375.41;5097501;27;45342;-72
2023/07/15 06:39:31;;;;;;;;;0.67;0.67;;;;;30.70;36.52;100374.28;5097740;27;45371;-72
2023/07/15 06:41:57;;;;;;;;;0.67;0.67;;;;;30.65;36.82;100382.28;5097748;27;45332;-72
2023/07/15 06:44:24;;;;;;;;;1.00;1.00;;;;;30.58;36.69;100378.97;5097435;27;46351;-72
2023/07/15 06:46:49;;;;;;;;;2.00;1.67;;;;;30.52;36.79;100392.31;5097384;27;45385;-72
2023/07/15 06:49:15;;;;;;;;;3.00;1.33;;;;;30.46;37.02;100384.47;5097731;27;45346;-71
2023/07/15 06:51:40;;;;;;;;;1.33;1.33;;;;;30.39;37.33;100382.75;5096927;27;45516;-72
2023/07/15 06:54:05;;;;;;;;;2.00;2.00;;;;;30.36;36.91;100383.28;5097398;27;45398;-71
2023/07/15 06:56:30;;;;;;;;;1.00;1.00;;;;;30.35;37.30;100386.19;5097322;27;45958;-72
2023/07/15 06:58:56;;;;;;;;;1.00;1.00;;;;;30.35;37.23;100389.69;5097335;27;45438;-72
2023/07/15 07:01:21;;;;;;;;;1.00;1.00;;;;;30.33;37.16;100393.69;5097613;27;45378;-72
2023/07/15 07:03:46;;;;;;;;;1.67;1.00;;;;;30.29;37.35;100386.09;5096979;27;53054;-71
2023/07/15 07:06:12;;;;;;;;;2.00;2.00;;;;;30.26;37.26;100389.31;5096898;27;45409;-71
2023/07/15 07:08:37;;;;;;;;;2.00;1.00;;;;;30.27;37.21;100390.09;5097351;27;45431;-71
2023/07/15 07:11:03;;;;;;;;;1.33;1.33;;;;;30.25;37.45;100387.66;5097342;27;45333;-72
2023/07/15 07:13:28;;;;;;;;;1.67;1.67;;;;;30.26;37.24;100383.94;5096906;27;48755;-75
2023/07/15 07:15:58;;;;;;;;;1.67;0.67;;;;;30.26;37.53;100383.94;5097260;27;45393;-72
2023/07/15 07:18:24;;;;;;;;;1.00;1.00;;;;;30.22;37.35;100384.66;5096942;27;45339;-73
2023/07/15 07:20:55;;;;;;;;;0.00;0.00;;;;;30.16;37.64;100376.53;5096636;27;45536;-73
2023/07/15 07:23:20;;;;;;;;;3.00;2.00;;;;;30.12;37.81;100375.44;5096807;27;45350;-73
2023/07/15 07:25:45;;;;;;;;;1.67;1.67;;;;;30.10;37.39;100388.28;5096540;27;45296;-72
2023/07/15 07:28:11;;;;;;;;;2.33;2.33;;;;;30.07;37.75;100375.34;5096895;27;45362;-73
2023/07/15 07:30:36;;;;;;;;;2.00;2.00;;;;;30.03;37.87;100379.59;5097043;27;45489;-72
2023/07/15 07:33:02;;;;;;;;;0.33;0.33;;;;;30.00;37.74;100386.28;5096765;27;46115;-72
2023/07/15 07:35:27;;;;;;;;;1.00;1.00;;;;;29.94;37.78;100374.66;5096468;27;45297;-74
2023/07/15 07:37:54;;;;;;;;;2.00;2.00;;;;;29.94;38.23;100388.06;5096273;27;45526;-74
2023/07/15 07:40:20;;;;;;;;;1.00;1.00;;;;;29.92;38.31;100381.31;5096053;27;45372;-73
2023/07/15 07:42:45;;;;;;;;;0.00;0.00;;;;;29.88;38.15;100388.22;5096264;27;47024;-74
2023/07/15 07:45:14;;;;;;;;;0.33;0.33;;;;;29.83;38.36;100381.72;5083221;27;45467;-74
2023/07/15 07:47:40;;;;;;;;;0.33;0.33;;;;;29.81;38.34;100370.44;5094619;27;45353;-75
2023/07/15 07:50:06;;;;;;;;;1.00;1.00;;;;;29.78;38.30;100373.59;5095020;27;45405;-74
2023/07/15 07:52:31;;;;;;;;;3.67;2.00;;;;;29.78;38.50;100373.59;5095227;27;47880;-75
2023/07/15 07:54:57;;;;;;;;;1.00;1.00;;;;;29.76;38.68;100365.00;5094959;27;45345;-75
2023/07/15 07:57:22;;;;;;;;;1.00;1.00;;;;;29.70;38.43;100356.03;5095278;27;45394;-74
2023/07/15 07:59:47;;;;;;;;;1.33;1.33;;;;;29.72;38.69;100375.38;5095262;27;45501;-74
2023/07/15 08:02:13;;;;;;;;;1.33;1.33;;;;;29.70;38.75;100373.97;5095067;27;46316;-75
2023/07/15 08:04:38;;;;;;;;;1.00;1.00;;;;;29.67;38.72;100369.91;5094902;27;45471;-77
2023/07/15 08:07:03;;;;;;;;;1.00;1.00;;;;;29.69;38.77;100369.69;5094799;27;45595;-75
2023/07/15 08:09:29;;;;;;;;;1.00;1.00;;;;;29.63;38.89;100366.94;5095029;27;45504;-74
2023/07/15 08:11:54;;;;;;;;;3.67;3.00;;;;;29.65;38.85;100377.41;5095508;27;45399;-74
2023/07/15 08:14:20;;;;;;;;;2.00;1.00;;;;;29.63;38.73;100376.84;5095273;27;45417;-74
2023/07/15 08:16:45;;;;;;;;;1.00;1.00;;;;;29.63;39.04;100379.50;5095112;27;45406;-74
2023/07/15 08:19:11;;;;;;;;;1.00;1.00;;;;;29.61;39.14;100379.75;5095188;27;45337;-75
2023/07/15 08:21:37;;;;;;;;;1.00;1.00;;;;;29.62;38.83;100389.41;5095317;27;45800;-74
2023/07/15 08:24:03;;;;;;;;;0.33;0.33;;;;;29.61;38.72;100389.69;5095395;27;45379;-74
2023/07/15 08:26:28;;;;;;;;;0.00;0.00;;;;;29.60;38.77;100399.56;5095620;27;45463;-74
2023/07/15 08:28:55;;;;;;;;;1.00;1.00;;;;;29.60;39.16;100406.78;5095352;27;45404;-75
2023/07/15 08:31:21;;;;;;;;;0.33;0.00;;;;;29.57;38.92;100392.00;5095183;27;46383;-74
2023/07/15 08:33:46;;;;;;;;;0.00;0.00;;;;;29.57;38.89;100391.19;5095046;27;45508;-74
2023/07/15 08:36:12;;;;;;;;;2.00;2.00;;;;;29.58;39.29;100399.00;5094995;27;45512;-74
2023/07/15 08:38:37;;;;;;;;;1.00;1.00;;;;;29.55;39.17;100398.69;5095237;27;45436;-74
2023/07/15 08:41:03;;;;;;;;;1.00;1.00;;;;;29.57;39.21;100393.88;5095042;27;47176;-73
2023/07/15 08:43:32;;;;;;;;;1.00;0.67;;;;;29.56;39.24;100398.41;5094552;27;45386;-73
2023/07/15 08:46:00;;;;;;;;;1.67;1.67;;;;;29.55;39.13;100377.22;5089425;27;45403;-74
2023/07/15 08:48:27;;;;;;;;;3.00;1.00;;;;;29.54;39.55;100384.47;5091878;27;45366;-75
2023/07/15 08:50:56;;;;;;;;;1.33;0.67;;;;;29.54;39.42;100394.34;5094750;27;45471;-74
2023/07/15 08:53:26;;;;;;;;;0.00;0.00;;;;;29.53;39.31;100393.56;5095594;27;45641;-73
2023/07/15 08:55:55;;;;;;;;;1.00;1.00;;;;;29.55;39.53;100385.28;5098675;27;45544;-72
2023/07/15 08:58:20;;;;;;;;;0.00;0.00;;;;;29.55;39.25;100390.63;5096173;27;45354;-72
2023/07/15 09:00:45;;;;;;;;;2.67;2.67;;;;;29.54;39.39;100380.97;5097751;27;46358;-71
2023/07/15 09:03:11;;;;;;;;;1.67;1.67;;;;;29.54;39.12;100378.28;5098674;27;45446;-74
2023/07/15 09:05:36;;;;;;;;;0.00;0.00;;;;;29.54;39.25;100375.59;5099156;27;45365;-72
2023/07/15 09:08:09;;;;;;;;;1.00;1.00;;;;;29.54;38.57;100376.41;5099226;27;45335;-71
2023/07/15 09:10:35;;;;;;;;;0.00;0.00;;;;;29.54;37.69;100368.38;5098992;27;45337;-71
2023/07/15 09:13:01;;;;;;;;;0.33;0.33;;;;;29.51;37.45;100364.31;5098843;27;45465;-72
2023/07/15 09:15:26;;;;;;;;;1.33;1.00;;;;;29.52;38.29;100373.16;5098732;27;45851;-72
2023/07/15 09:17:56;;;;;;;;;1.00;1.00;;;;;29.50;38.09;100364.56;5098759;27;45456;-70
2023/07/15 09:20:23;;;;;;;;;0.00;0.00;;;;;29.47;37.29;100371.22;5098820;27;47015;-71
2023/07/15 09:22:55;;;;;;;;;0.33;0.33;;;;;29.44;36.58;100369.03;5098983;27;45458;-72
2023/07/15 09:25:22;;;;;;;;;1.67;0.00;;;;;29.40;36.28;100368.72;5098975;27;45300;-71
2023/07/15 09:27:48;;;;;;;;;0.33;0.00;;;;;29.35;36.46;100370.50;5099419;27;45343;-72
2023/07/15 09:30:15;;;;;;;;;0.00;0.00;;;;;29.27;36.01;100360.97;5097878;27;45401;-73
2023/07/15 09:32:44;;;;;;;;;0.00;0.00;;;;;29.21;35.74;100359.25;5098377;27;45647;-72
2023/07/15 09:35:10;;;;;;;;;0.67;0.00;;;;;29.10;36.45;100356.41;5097196;27;45294;-74
2023/07/15 09:37:35;;;;;;;;;1.00;1.00;;;;;29.14;36.50;100360.25;5098483;27;45406;-74
2023/07/15 09:40:08;;;;;;;;;0.00;0.00;;;;;29.15;36.66;100361.84;5098451;27;46457;-73
2023/07/15 09:43:00;;;;;;;;;1.00;0.33;;;;;29.17;37.04;100358.94;5098446;27;45395;-72
2023/07/15 09:45:36;;;;;;;;;0.00;0.00;;;;;29.16;37.02;100368.84;5094043;27;45381;-73
2023/07/15 09:48:10;;;;;;;;;1.00;1.00;;;;;29.15;37.61;100379.78;5098351;27;45470;-76
2023/07/15 09:50:42;;;;;;;;;1.00;0.33;;;;;29.16;37.42;100373.38;5098182;27;47075;-74
2023/07/15 09:53:09;;;;;;;;;1.33;1.33;;;;;29.18;37.83;100374.78;5098500;27;45287;-73
2023/07/15 09:55:37;;;;;;;;;0.00;0.00;;;;;29.19;37.80;100367.56;5098353;27;45388;-73
2023/07/15 09:58:25;;;;;;;;;0.67;0.67;;;;;29.20;37.93;100366.47;5098370;27;45416;-73
2023/07/15 10:00:59;;;;;;;;;3.00;1.00;;;;;29.21;37.92;100367.28;5107861;27;46634;-73
2023/07/15 10:03:55;;;;;;;;;0.00;0.00;;;;;29.22;37.75;100380.47;5098210;27;45168;-74
2023/07/15 10:06:21;;;;;;;;;1.00;1.00;;;;;29.21;38.25;100369.97;5097607;27;45470;-73
2023/07/15 10:08:47;;;;;;;;;0.00;0.00;;;;;29.21;37.96;100367.28;5098188;27;45243;-73
2023/07/15 10:11:13;;;;;;;;;1.00;1.00;;;;;29.20;38.14;100393.25;5098065;27;46100;-73
2023/07/15 10:13:39;;;;;;;;;1.00;1.00;;;;;29.21;38.03;100405.63;5097640;27;45401;-73
2023/07/15 10:16:05;;;;;;;;;0.00;0.00;;;;;29.21;38.21;100402.94;5098025;27;45458;-73
2023/07/15 10:18:31;;;;;;;;;0.33;0.33;;;;;29.21;37.78;100407.47;5097953;27;45401;-74
2023/07/15 10:21:02;;;;;;;;;2.00;2.00;;;;;29.20;38.21;100395.94;5097754;27;46266;-74
2023/07/15 10:23:30;;;;;;;;;1.00;1.00;;;;;29.18;38.06;100396.19;5096629;27;45668;-73
2023/07/15 10:26:04;;;;;;;;;1.00;1.00;;;;;29.20;38.18;100403.19;5098012;27;45315;-73
2023/07/15 10:28:34;;;;;;;;;2.33;1.67;;;;;29.20;38.16;100403.97;5098075;27;45329;-74
2023/07/15 10:31:30;;;;;;;;;0.00;0.00;;;;;29.21;38.61;100404.81;5097661;27;47841;-73
2023/07/15 10:33:57;;;;;;;;;1.00;1.00;;;;;29.20;38.11;100412.00;5092742;27;45517;-73
2023/07/15 10:36:50;;;;;;;;;1.00;1.00;;;;;29.21;38.69;100415.50;5097829;27;45527;-74
2023/07/15 10:39:19;;;;;;;;;0.00;0.00;;;;;29.17;38.20;100404.47;5097749;27;45217;-74
2023/07/15 10:41:49;;;;;;;;;0.67;0.67;;;;;29.20;38.00;100403.19;5097491;27;45435;-74
2023/07/15 10:44:15;;;;;;;;;1.00;1.00;;;;;29.20;38.55;100397.84;5097170;27;45428;-74
2023/07/15 10:46:44;;;;;;;;;1.00;0.33;;;;;29.20;38.77;100387.13;5097284;27;45374;-74
2023/07/15 10:49:09;;;;;;;;;2.00;1.00;;;;;29.17;38.35;100375.81;5097798;27;45404;-73
2023/07/15 10:51:35;;;;;;;;;1.00;1.00;;;;;29.19;38.42;100370.22;5097056;27;49360;-74
2023/07/15 10:54:01;;;;;;;;;0.00;0.00;;;;;29.20;38.65;100363.78;5097555;27;45457;-74
2023/07/15 10:56:26;;;;;;;;;1.00;1.00;;;;;29.18;38.53;100365.91;5097417;27;45462;-74
2023/07/15 10:58:51;;;;;;;;;2.00;0.33;;;;;29.15;38.21;100364.53;5097018;27;45405;-74
2023/07/15 11:01:16;;;;;;;;;1.00;1.00;;;;;29.20;38.48;100355.75;5097278;27;45357;-73
2023/07/15 11:03:42;;;;;;;;;1.67;1.00;;;;;29.20;38.32;100358.44;5097255;27;45323;-74
2023/07/15 11:06:08;;;;;;;;;2.00;1.00;;;;;29.19;38.70;100367.56;5097539;27;45264;-74
2023/07/15 11:08:34;;;;;;;;;2.00;2.00;;;;;29.19;38.18;100356.84;5097180;27;45556;-74
2023/07/15 11:11:04;;;;;;;;;1.67;1.00;;;;;29.17;38.74;100361.63;5096698;27;45297;-74
2023/07/15 11:13:30;;;;;;;;;1.00;1.00;;;;;29.18;38.50;100366.72;5096713;27;45438;-74
2023/07/15 11:15:56;;;;;;;;;1.00;1.00;;;;;29.17;38.54;100354.38;5096915;27;45368;-74
2023/07/15 11:18:23;;;;;;;;;0.33;0.33;;;;;29.18;38.54;100369.41;5096921;27;45569;-73
2023/07/15 11:20:56;;;;;;;;;1.00;1.00;;;;;29.20;38.49;100365.69;5096854;27;46276;-73
2023/07/15 11:23:22;;;;;;;;;0.67;0.67;;;;;29.18;38.60;100347.16;5096965;27;45361;-73